Twin Bridges, Montana
Current Conditions -  °F | °C
As of 12:53 AM on Saturday 25 Oct 2014 (Local Time) from KDLN Reporting Station
Clear Clear  
Wind Chill: 30°   Ceiling: Unl
Heat Index: 35°   Visibility: 10mi
Dew Point: 33°   Wind: 6mph
Humidity: 92%   Direction: 110°ESE
Pressure: 30.1"   Gusts: NA
Location:  45.54°N, 112.33°W
Report Text: KDLN 250653Z AUTO 11005KT 10SM CLR 02/01 A3010 RMK AO2 SLP184 T00170006 401170011
Loading
Personal Weather Stations






























Interactive Weather Map
Tropical Storm Tracking
New forecast layout! Learn more

10-Day Weather Forecast

Advertisements
Track Severe Weather on mobile